メインページ
METAR-TAF:

METAR-TAF

空港 :

フンシャル, マデイラ諸島, ポルトガル

マデイラ空港

緯度: 32-41-52N, 経度: 016-46-28W, 海抜: 59m

現時点の気象観測

当レポートは29分前の09:00(UTC)に作成
南/南西の風 20kt
気温 17°C
湿度 88%
気圧 1000 hPa
視程10km以上
高度1200ftの雲は散在している
高度1600ftの雲はほとんどない, 積乱雲.

METAR: LPMA 250900Z 20020KT 9999 SCT012 FEW016CB 17/15 Q1000

時間: 09:29 (09:29 UTC)

予報

当レポートは4時間29分前の05:00(UTC)に作成
予報は25日の 06時(UTC)から 26日の 06時(UTC)まで有効
南/南西の風 17kt
視程10km以上
高度1500ftの雲は散在している
25日の 06時(UTC)から 25日の 09時(UTC)まで一時的に
南/南西の風 20kt、最大30ktの突風を伴う
高度1500ftの千切れ雲あり
25日の 09時(UTC)から 25日の 11時(UTC)まで徐々に
南/南西の風 17kt、最大27ktの突風を伴う
視程: 6000m
高度800ftの雲は散在している
高度1300ftの千切れ雲あり
小雨, 霧雨
25日の 11時(UTC)から 25日の 16時(UTC)まで一時的に
南/南西の風 28kt、最大40ktの突風を伴う
視程: 2000m
高度600ftの雲は散在している
高度1000ftの千切れ雲あり
高度1800ftの雲はほとんどない, 塔状積雲.
大雨
25日の 16時(UTC)から 25日の 19時(UTC)まで徐々に
変向風 5kt
視程10km以上
高度1500ftの雲は散在している
25日の 19時(UTC)から 26日の 06時(UTC)まで一時的に
視程: 8000m
高度1300ftの千切れ雲あり
にわか雨
26日の 01時(UTC)から 26日の 04時(UTC)まで徐々に
西/南西の風 8kt

TAF: LPMA 250500Z 2506/2606 20017KT 9999 SCT015 TEMPO 2506/2509 21020G30KT BKN015 BECMG 2509/2511 21017G27KT 6000 -RADZ SCT008 BKN013 TEMPO 2511/2516 21028G40KT 2000 +RA SCT006 BKN010 FEW018TCU BECMG 2516/2519 VRB05KT 9999 NSW SCT015 TEMPO 2519/2606 8000 SHRA BKN013 BECMG 2601/2604 24008KT

4,000以上の空港の気象観測と天気予報(METAR報とTAF報)

利用可能な観測所は地図上に黄色い丸と赤い丸で示す。

丸の上にカーソルを重ねると観測所名を参照できる。

次にクリックすると気象観測と天気予報を参照できる。

マップの切り替え:黒色「×」印の緑ボタンをクリックして拡大、「-」印の緑ボタンをクリックして縮小、緑色の三角印をクリックして隣りの地図に切り替え


METAR-TAF: